KTWM

Details ICAO KTWM
Name RICHARD B HELGESON
Region United States
Timezone America/Chicago (UTC-6.0)
Plans Departing 0
Arriving 0
Stats Elevation 1,080 ft / 329 m (AMSL)
Location 47.048993° -91.745175°
Runways 2
Magnetic Variation 1.348° W
Sunrise 2017-12-13 13:46:17 UTC / 2017-12-13 07:46:17 Local
Sunset 2017-12-13 22:19:09 UTC / 2017-12-13 16:19:09 Local
Advertisement - Login to hide

Runways

ID Width Length Bearing (true) Bearing (mag) Surface Threshold Offset Overrun Length
06 75 ft / 23 m 4,391 ft / 1,339 m 62.14° 63.49° Asphalt 0 ft / 0 m 0 ft / 0 m
15 150 ft / 46 m 2,549 ft / 777 m 143.52° 144.87° Grass 0 ft / 0 m 0 ft / 0 m
24 75 ft / 23 m 4,391 ft / 1,339 m 242.15° 243.50° Asphalt 0 ft / 0 m 0 ft / 0 m
33 150 ft / 46 m 2,549 ft / 777 m 323.53° 324.88° Grass 0 ft / 0 m 0 ft / 0 m

Map

Weather


0- 5 10 15 20 25 30 35+ Temperature / ° C

Clouds and Precipitation
Forecast for 2017-12-13 06:00 UTC. Updated 43 minutes ago

Ground ~20,000 ft ~40,000 ft Winds

METAR

KTWM 130555Z AUTO 11004KT 7SM OVC006 M07/M10 A2961 RMK AO2

TAF

Not found

Frequencies

Recorded 119.32 MHz AWOS 3
Approach 125.45 MHz DULUTH APP/DEP
Unicom 122.90 MHz CTAF
Warning: Do not use this data for real-world aviation or navigation. No guarantee of current accuracy is given.